createdAt,value
2022-10-18T00:02:03.701Z,23.80
2022-10-18T00:04:30.215Z,21.33
2022-10-18T00:06:56.688Z,25.27
2022-10-18T00:09:23.288Z,25.20
2022-10-18T00:11:49.822Z,22.63
2022-10-18T00:14:16.278Z,23.93
2022-10-18T00:16:42.746Z,19.40
2022-10-18T00:19:09.341Z,26.27
2022-10-18T00:21:35.837Z,26.37
2022-10-18T00:24:02.818Z,30.40
2022-10-18T00:26:30.401Z,26.50
2022-10-18T00:29:02.009Z,22.20
2022-10-18T00:31:29.840Z,20.50
2022-10-18T00:33:58.546Z,20.40
2022-10-18T00:36:26.097Z,28.27
2022-10-18T00:38:53.249Z,23.27
2022-10-18T00:41:28.905Z,24.70
2022-10-18T00:44:02.757Z,25.33
2022-10-18T00:46:31.770Z,24.47
2022-10-18T00:49:00.615Z,27.07
2022-10-18T00:51:30.498Z,30.57
2022-10-18T00:53:57.084Z,33.53
2022-10-18T00:56:23.565Z,32.50
2022-10-18T00:58:51.080Z,32.37
2022-10-18T01:01:17.798Z,29.87
2022-10-18T01:03:44.360Z,50.27
2022-10-18T01:06:10.843Z,29.80
2022-10-18T01:08:56.749Z,44.37
2022-10-18T01:11:29.806Z,32.50
2022-10-18T01:14:14.573Z,37.23
2022-10-18T01:16:52.904Z,32.90
2022-10-18T01:19:25.362Z,34.53
2022-10-18T01:21:57.675Z,35.40
2022-10-18T01:24:50.950Z,45.20
2022-10-18T01:27:20.387Z,31.47
2022-10-18T01:30:26.108Z,34.73
2022-10-18T01:32:54.518Z,37.87
2022-10-18T01:35:29.908Z,31.70
2022-10-18T01:37:57.878Z,32.83
2022-10-18T01:40:24.745Z,37.03
2022-10-18T01:42:51.246Z,35.63
2022-10-18T01:45:19.189Z,36.30
2022-10-18T01:47:46.890Z,33.00
2022-10-18T01:50:14.024Z,28.97
2022-10-18T01:52:51.197Z,40.37
2022-10-18T01:55:19.642Z,67.17
2022-10-18T01:58:13.743Z,27.80
2022-10-18T02:00:42.466Z,26.37
2022-10-18T02:03:17.938Z,67.87
2022-10-18T02:06:03.031Z,59.10
2022-10-18T02:08:39.276Z,45.23
2022-10-18T02:11:09.880Z,33.60
2022-10-18T02:13:39.497Z,35.97
2022-10-18T02:16:22.714Z,34.77
2022-10-18T02:19:16.269Z,31.30
2022-10-18T02:21:44.408Z,34.37
2022-10-18T02:24:13.472Z,35.93
2022-10-18T02:26:40.131Z,40.33
2022-10-18T02:29:06.700Z,45.03
2022-10-18T02:31:40.294Z,37.43
2022-10-18T02:34:20.182Z,62.97
2022-10-18T02:36:50.677Z,59.93
2022-10-18T02:39:21.179Z,58.00
2022-10-18T02:41:47.662Z,54.63
2022-10-18T02:44:14.245Z,58.83
2022-10-18T02:46:40.881Z,68.60
2022-10-18T02:49:07.364Z,62.93
2022-10-18T02:51:34.169Z,59.30
2022-10-18T02:54:00.608Z,74.93
2022-10-18T02:56:27.081Z,66.67
2022-10-18T02:58:53.530Z,96.73
2022-10-18T03:01:20.059Z,73.67
2022-10-18T03:03:46.585Z,65.70
2022-10-18T03:06:13.075Z,75.77
2022-10-18T03:08:39.593Z,77.63
2022-10-18T03:11:06.182Z,101.40
2022-10-18T03:13:34.295Z,70.33
2022-10-18T03:16:01.245Z,102.20
2022-10-18T03:18:27.784Z,62.30
2022-10-18T03:20:54.238Z,85.57
2022-10-18T03:23:20.697Z,80.80
2022-10-18T03:25:47.172Z,72.17
2022-10-18T03:28:13.636Z,77.03
2022-10-18T03:30:40.114Z,111.27
2022-10-18T03:33:06.921Z,85.40
2022-10-18T03:35:33.425Z,112.87
2022-10-18T03:37:59.923Z,70.47
2022-10-18T03:40:26.438Z,72.73
2022-10-18T03:42:52.952Z,95.43
2022-10-18T03:45:19.381Z,79.03
2022-10-18T03:47:46.157Z,83.43
2022-10-18T03:50:12.602Z,71.30
2022-10-18T03:52:39.126Z,80.00
2022-10-18T03:55:06.196Z,104.20
2022-10-18T03:57:32.748Z,114.97
2022-10-18T03:59:59.242Z,95.67
2022-10-18T04:02:25.970Z,92.27
2022-10-18T04:04:52.673Z,59.47
2022-10-18T04:07:19.155Z,64.63
2022-10-18T04:09:45.620Z,63.07
2022-10-18T04:12:12.190Z,110.33
2022-10-18T04:14:38.610Z,99.87
2022-10-18T04:17:05.103Z,71.73
2022-10-18T04:19:31.569Z,60.97
2022-10-18T04:21:58.040Z,76.57
2022-10-18T04:24:24.556Z,69.23
2022-10-18T04:26:51.301Z,49.33
2022-10-18T04:29:17.780Z,52.03
2022-10-18T04:31:44.241Z,60.50
2022-10-18T04:34:10.799Z,60.60
2022-10-18T04:36:37.307Z,85.43
2022-10-18T04:39:03.774Z,69.20
2022-10-18T04:41:30.295Z,84.13
2022-10-18T04:43:56.745Z,56.70
2022-10-18T04:46:23.269Z,56.63
2022-10-18T04:48:49.821Z,72.80
2022-10-18T04:51:16.295Z,57.80
2022-10-18T04:53:42.736Z,62.40
2022-10-18T04:56:09.206Z,73.57
2022-10-18T04:58:35.692Z,66.80
2022-10-18T05:01:06.147Z,55.27
2022-10-18T05:03:32.798Z,75.10
2022-10-18T05:06:02.947Z,52.50
2022-10-18T05:08:30.689Z,54.50
2022-10-18T05:10:57.275Z,52.67
2022-10-18T05:13:23.868Z,59.40
2022-10-18T05:15:50.389Z,70.37
2022-10-18T05:18:16.880Z,61.87
2022-10-18T05:20:43.356Z,65.17
2022-10-18T05:23:12.842Z,62.03
2022-10-18T05:25:40.354Z,72.50
2022-10-18T05:28:15.605Z,83.07
2022-10-18T05:30:47.719Z,77.53
2022-10-18T05:33:14.182Z,58.77
2022-10-18T05:35:40.612Z,83.37
2022-10-18T05:38:07.121Z,62.27
2022-10-18T05:40:34.234Z,58.53
2022-10-18T05:43:00.670Z,76.37
2022-10-18T05:45:27.099Z,67.87
2022-10-18T05:47:54.356Z,61.60
2022-10-18T05:50:20.816Z,78.47
2022-10-18T05:52:47.289Z,73.57
2022-10-18T05:55:13.895Z,61.70
2022-10-18T05:57:40.354Z,69.07
2022-10-18T06:00:07.354Z,65.87
2022-10-18T06:02:33.867Z,59.63
2022-10-18T06:05:00.294Z,83.10
2022-10-18T06:07:26.759Z,88.73
2022-10-18T06:09:53.210Z,87.53
2022-10-18T06:12:19.686Z,65.07
2022-10-18T06:14:46.134Z,80.00
2022-10-18T06:17:12.674Z,67.00
2022-10-18T06:19:39.154Z,67.30
2022-10-18T06:22:05.673Z,65.20
2022-10-18T06:24:32.128Z,65.33
2022-10-18T06:26:59.032Z,74.27
2022-10-18T06:29:25.570Z,59.40
2022-10-18T06:31:52.011Z,57.93
2022-10-18T06:34:18.586Z,61.90
2022-10-18T06:36:45.043Z,61.83
2022-10-18T06:39:11.536Z,66.03
2022-10-18T06:41:37.993Z,65.30
2022-10-18T06:44:13.549Z,55.10
2022-10-18T06:46:44.338Z,59.20
2022-10-18T06:49:13.134Z,57.60
2022-10-18T06:51:42.776Z,58.20
2022-10-18T06:54:24.269Z,50.60
2022-10-18T06:56:50.689Z,54.07
2022-10-18T06:59:18.188Z,46.00
2022-10-18T07:01:44.787Z,53.00
2022-10-18T07:04:11.316Z,59.53
2022-10-18T07:06:37.772Z,55.67
2022-10-18T07:09:04.283Z,57.47
2022-10-18T07:11:30.750Z,53.50
2022-10-18T07:14:06.088Z,66.13
2022-10-18T07:16:33.318Z,68.40
2022-10-18T07:18:59.837Z,69.77
2022-10-18T07:21:26.752Z,48.87
2022-10-18T07:23:53.594Z,55.57
2022-10-18T07:26:24.088Z,51.27
2022-10-18T07:28:54.646Z,52.70
2022-10-18T07:31:22.630Z,50.47
2022-10-18T07:33:49.175Z,53.90
2022-10-18T07:36:16.130Z,62.27
2022-10-18T07:38:42.690Z,58.83
2022-10-18T07:41:12.344Z,60.87
2022-10-18T07:43:45.911Z,45.70
2022-10-18T07:46:12.914Z,49.97
2022-10-18T07:48:39.473Z,48.57
2022-10-18T07:51:06.298Z,47.07
2022-10-18T07:53:34.578Z,58.17
2022-10-18T07:56:05.953Z,52.23
2022-10-18T07:58:35.241Z,47.93
2022-10-18T08:01:05.493Z,39.40
2022-10-18T08:03:32.163Z,50.17
2022-10-18T08:05:58.673Z,47.90
2022-10-18T08:08:25.948Z,48.50
2022-10-18T08:10:52.732Z,48.87
2022-10-18T08:13:19.434Z,48.43
2022-10-18T08:15:46.067Z,82.27
2022-10-18T08:18:12.929Z,52.07
2022-10-18T08:20:44.176Z,50.03
2022-10-18T08:23:10.823Z,47.73
2022-10-18T08:25:37.456Z,58.90
2022-10-18T08:28:04.143Z,43.50
2022-10-18T08:30:30.628Z,49.17
2022-10-18T08:32:57.078Z,43.57
2022-10-18T08:35:23.560Z,43.23
2022-10-18T08:37:50.196Z,47.47
2022-10-18T08:40:16.745Z,38.83
2022-10-18T08:43:02.052Z,41.97
2022-10-18T08:45:41.289Z,42.53
2022-10-18T08:48:36.020Z,42.10
2022-10-18T08:51:04.594Z,40.73
2022-10-18T08:53:43.795Z,46.37
2022-10-18T08:56:14.883Z,42.97
2022-10-18T08:58:44.035Z,43.03
2022-10-18T09:01:37.927Z,46.33
2022-10-18T09:04:33.108Z,35.87
2022-10-18T09:07:08.078Z,37.87
2022-10-18T09:09:39.073Z,40.43
2022-10-18T09:13:01.657Z,35.23
2022-10-18T09:15:43.363Z,39.13
2022-10-18T09:18:31.579Z,37.53
2022-10-18T09:21:24.168Z,32.43
2022-10-18T09:24:01.534Z,35.23
2022-10-18T09:26:28.001Z,34.07
2022-10-18T09:29:32.166Z,32.60
2022-10-18T09:32:07.843Z,31.17
2022-10-18T09:34:46.659Z,25.93
2022-10-18T09:37:15.306Z,29.07
2022-10-18T09:39:42.287Z,23.03
2022-10-18T09:42:15.129Z,23.07
2022-10-18T09:44:48.852Z,19.90
2022-10-18T09:47:22.930Z,22.93
2022-10-18T09:49:53.004Z,24.50
2022-10-18T09:52:23.558Z,21.23
2022-10-18T09:54:55.392Z,23.30
2022-10-18T09:57:24.922Z,18.03
2022-10-18T09:59:51.486Z,18.07
2022-10-18T10:02:24.348Z,17.87
2022-10-18T10:04:51.848Z,15.97
2022-10-18T10:07:32.482Z,17.53
2022-10-18T10:10:26.121Z,19.20
2022-10-18T10:13:07.617Z,17.30
2022-10-18T10:15:40.527Z,20.70
2022-10-18T10:18:21.223Z,15.80
2022-10-18T10:20:53.555Z,15.60
2022-10-18T10:23:44.912Z,14.90
2022-10-18T10:26:23.451Z,13.03
2022-10-18T10:28:50.429Z,14.80
2022-10-18T10:31:36.795Z,14.30
2022-10-18T10:34:13.596Z,16.10
2022-10-18T10:36:48.585Z,11.20
2022-10-18T10:39:18.939Z,15.50
2022-10-18T10:41:53.794Z,12.77
2022-10-18T10:44:23.463Z,14.27
2022-10-18T10:46:50.889Z,13.07
2022-10-18T10:49:39.136Z,10.40
2022-10-18T10:52:09.116Z,10.10
2022-10-18T10:54:51.582Z,14.47
2022-10-18T10:57:27.433Z,13.37
2022-10-18T10:59:56.534Z,13.77
2022-10-18T11:02:27.214Z,10.60
2022-10-18T11:04:55.931Z,15.67
2022-10-18T11:07:41.218Z,13.77
2022-10-18T11:10:10.720Z,16.13
2022-10-18T11:12:48.217Z,12.57
2022-10-18T11:15:19.407Z,13.00
2022-10-18T11:17:55.929Z,11.03
2022-10-18T11:20:23.088Z,14.20
2022-10-18T11:23:02.580Z,13.93
2022-10-18T11:25:40.440Z,9.97
2022-10-18T11:28:13.397Z,11.93
2022-10-18T11:30:42.882Z,9.20
2022-10-18T11:33:16.518Z,11.23
2022-10-18T11:35:46.632Z,10.87
2022-10-18T11:38:34.829Z,11.80
2022-10-18T11:41:11.545Z,11.80
2022-10-18T11:44:02.172Z,9.43
2022-10-18T11:46:41.589Z,14.97
2022-10-18T11:49:10.791Z,11.43
2022-10-18T11:52:03.627Z,10.60
2022-10-18T11:54:47.300Z,11.47
2022-10-18T11:57:40.816Z,10.37
2022-10-18T12:00:29.385Z,8.77
2022-10-18T12:03:07.438Z,9.00
2022-10-18T12:05:36.639Z,14.13
2022-10-18T12:08:08.891Z,14.33
2022-10-18T12:10:52.653Z,10.50
2022-10-18T12:13:50.718Z,13.37
2022-10-18T12:16:18.612Z,11.33
2022-10-18T12:18:55.011Z,10.90
2022-10-18T12:21:25.416Z,10.10
2022-10-18T12:24:01.516Z,9.27
2022-10-18T12:26:29.030Z,11.13
2022-10-18T12:29:13.516Z,10.67
2022-10-18T12:31:52.798Z,11.43
2022-10-18T12:34:27.279Z,17.60
2022-10-18T12:39:43.577Z,12.33
2022-10-18T12:42:23.261Z,7.37
2022-10-18T12:44:50.204Z,11.57
2022-10-18T12:47:24.754Z,11.27
2022-10-18T12:50:04.216Z,10.13
2022-10-18T12:52:33.882Z,11.80
2022-10-18T12:55:19.364Z,10.97
2022-10-18T12:57:51.897Z,10.27
2022-10-18T13:00:30.595Z,9.60
2022-10-18T13:03:09.225Z,11.57
2022-10-18T13:05:53.282Z,13.03
2022-10-18T13:08:34.032Z,10.60
2022-10-18T13:11:09.667Z,9.93
2022-10-18T13:13:45.319Z,8.10
2022-10-18T13:16:20.953Z,9.47
2022-10-18T13:18:52.005Z,10.00
2022-10-18T13:21:42.446Z,8.00
2022-10-18T13:24:32.604Z,9.30
2022-10-18T13:27:34.984Z,10.73
2022-10-18T13:30:17.206Z,9.47
2022-10-18T13:32:52.783Z,9.10
2022-10-18T13:35:41.097Z,10.40
2022-10-18T13:38:26.537Z,8.20
2022-10-18T13:41:04.589Z,6.87
2022-10-18T13:43:53.040Z,10.30
2022-10-18T13:46:20.122Z,7.50
2022-10-18T13:48:54.477Z,8.83
2022-10-18T13:52:09.063Z,5.80
2022-10-18T13:54:35.453Z,8.63
2022-10-18T13:57:15.517Z,6.60
2022-10-18T14:00:03.255Z,5.40
2022-10-18T14:03:16.402Z,9.27
2022-10-18T14:05:57.743Z,10.67
2022-10-18T14:08:29.427Z,11.50
2022-10-18T14:11:11.533Z,10.93
2022-10-18T14:13:48.205Z,8.50
2022-10-18T14:16:36.648Z,10.73
2022-10-18T14:19:12.228Z,8.93
2022-10-18T14:21:40.499Z,9.40
2022-10-18T14:24:17.985Z,7.57
2022-10-18T14:26:44.498Z,9.80
2022-10-18T14:29:19.793Z,11.00
2022-10-18T14:31:53.888Z,8.87
2022-10-18T14:34:20.917Z,9.90
2022-10-18T14:36:48.844Z,6.53
2022-10-18T14:39:21.144Z,14.63
2022-10-18T14:41:50.140Z,9.70
2022-10-18T14:44:21.106Z,14.93
2022-10-18T14:46:52.018Z,8.20
2022-10-18T14:49:19.928Z,11.10
2022-10-18T14:51:51.775Z,8.57
2022-10-18T14:54:30.644Z,7.37
2022-10-18T14:56:59.643Z,6.83
2022-10-18T14:59:28.609Z,8.90
2022-10-18T15:02:03.178Z,13.27
2022-10-18T15:04:33.165Z,9.20
2022-10-18T15:07:07.583Z,8.33
2022-10-18T15:09:35.597Z,9.33
2022-10-18T15:12:06.697Z,6.70
2022-10-18T15:14:34.057Z,10.03
2022-10-18T15:17:08.619Z,11.73
2022-10-18T15:19:39.286Z,7.83
2022-10-18T15:25:31.959Z,7.50
2022-10-18T15:27:59.511Z,8.93
2022-10-18T15:30:28.009Z,10.53
2022-10-18T15:32:57.022Z,7.70
2022-10-18T15:35:29.404Z,13.53
2022-10-18T15:37:57.746Z,6.27
2022-10-18T15:40:24.296Z,5.30
2022-10-18T15:42:52.531Z,5.87
2022-10-18T15:45:25.088Z,6.80
2022-10-18T15:48:05.203Z,12.97
2022-10-18T15:50:44.543Z,8.13
2022-10-18T15:53:49.413Z,7.37
2022-10-18T15:56:28.663Z,9.93
2022-10-18T15:58:58.984Z,5.10
2022-10-18T16:01:36.613Z,7.00
2022-10-18T16:04:18.232Z,6.90
2022-10-18T16:06:44.726Z,8.83
2022-10-18T16:09:17.986Z,10.90
2022-10-18T16:11:44.604Z,8.17
2022-10-18T16:14:11.220Z,6.03
2022-10-18T16:16:39.348Z,10.83
2022-10-18T16:19:06.088Z,9.83
2022-10-18T16:21:37.688Z,10.37
2022-10-18T16:24:04.935Z,9.10
2022-10-18T16:26:31.468Z,5.80
2022-10-18T16:28:58.796Z,10.63
2022-10-18T16:31:27.850Z,9.67
2022-10-18T16:33:55.452Z,8.23
2022-10-18T16:36:26.489Z,5.87
2022-10-18T16:38:54.929Z,8.10
2022-10-18T16:41:22.388Z,6.40
2022-10-18T16:43:49.658Z,3.83
2022-10-18T16:46:27.297Z,4.87
2022-10-18T16:48:54.646Z,4.87
2022-10-18T16:51:21.269Z,5.43
2022-10-18T16:53:48.196Z,5.07
2022-10-18T16:56:17.243Z,7.73
2022-10-18T16:58:44.540Z,5.43
2022-10-18T17:01:16.456Z,9.67
2022-10-18T17:03:43.901Z,6.23
2022-10-18T17:06:15.719Z,6.33
2022-10-18T17:08:42.314Z,7.93
2022-10-18T17:11:10.450Z,4.97
2022-10-18T17:13:37.578Z,6.77
2022-10-18T17:16:04.745Z,7.90
2022-10-18T17:18:31.585Z,5.30
2022-10-18T17:21:03.728Z,7.97
2022-10-18T17:23:30.390Z,6.87
2022-10-18T17:26:07.281Z,10.53
2022-10-18T17:28:41.827Z,6.33
2022-10-18T17:31:08.430Z,6.83
2022-10-18T17:33:35.118Z,7.70
2022-10-18T17:36:01.602Z,7.10
2022-10-18T17:38:28.228Z,9.07
2022-10-18T17:40:54.808Z,7.27
2022-10-18T17:43:21.246Z,7.07
2022-10-18T17:45:49.236Z,10.50
2022-10-18T17:48:15.674Z,8.73
2022-10-18T17:50:46.222Z,10.33
2022-10-18T17:53:13.203Z,8.73
2022-10-18T17:55:40.003Z,9.13
2022-10-18T17:58:06.436Z,9.40
2022-10-18T18:00:32.935Z,10.30
2022-10-18T18:03:00.504Z,7.57
2022-10-18T18:05:33.360Z,10.77
2022-10-18T18:08:03.766Z,10.70
2022-10-18T18:10:32.919Z,11.33
2022-10-18T18:12:59.483Z,13.17
2022-10-18T18:15:26.052Z,9.87
2022-10-18T18:17:56.997Z,9.17
2022-10-18T18:20:24.509Z,10.43
2022-10-18T18:22:51.711Z,10.40
2022-10-18T18:25:21.303Z,11.37
2022-10-18T18:27:47.738Z,14.53
2022-10-18T18:30:15.479Z,9.03
2022-10-18T18:32:44.060Z,8.27
2022-10-18T18:35:10.534Z,11.00
2022-10-18T18:37:37.156Z,11.83
2022-10-18T18:40:04.009Z,8.87
2022-10-18T18:42:34.754Z,7.37
2022-10-18T18:45:01.452Z,13.97
2022-10-18T18:47:28.173Z,8.60
2022-10-18T18:49:59.748Z,10.37
2022-10-18T18:52:26.637Z,9.23
2022-10-18T18:54:53.088Z,11.47
2022-10-18T18:57:28.057Z,9.03
2022-10-18T18:59:54.525Z,8.30
2022-10-18T19:02:20.966Z,9.07
2022-10-18T19:04:47.443Z,9.13
2022-10-18T19:07:13.889Z,11.13
2022-10-18T19:09:42.261Z,6.27
2022-10-18T19:12:08.868Z,7.80
2022-10-18T19:14:35.342Z,9.30
2022-10-18T19:17:02.524Z,7.33
2022-10-18T19:19:30.606Z,9.33
2022-10-18T19:21:59.654Z,6.83
2022-10-18T19:24:28.377Z,10.97
2022-10-18T19:26:59.955Z,6.60
2022-10-18T19:29:31.787Z,7.47
2022-10-18T19:32:00.077Z,7.27
2022-10-18T19:34:28.249Z,13.40
2022-10-18T19:36:55.601Z,8.13
2022-10-18T19:39:26.903Z,5.23
2022-10-18T19:41:55.317Z,5.60
2022-10-18T19:44:23.160Z,4.07
2022-10-18T19:46:50.054Z,6.23
2022-10-18T19:49:16.844Z,5.50
2022-10-18T19:51:45.419Z,5.37
2022-10-18T19:54:13.290Z,5.37
2022-10-18T19:56:41.721Z,5.13
2022-10-18T19:59:08.837Z,4.13
2022-10-18T20:01:35.639Z,6.13
2022-10-18T20:04:04.463Z,4.93
2022-10-18T20:06:32.163Z,7.27
2022-10-18T20:08:58.660Z,4.40
2022-10-18T20:11:27.477Z,6.07
2022-10-18T20:13:54.055Z,5.47
2022-10-18T20:16:27.681Z,6.93
2022-10-18T20:18:59.969Z,5.53
2022-10-18T20:21:28.273Z,4.83
2022-10-18T20:23:55.032Z,8.80
2022-10-18T20:26:22.729Z,4.70
2022-10-18T20:28:56.340Z,9.23
2022-10-18T20:31:30.505Z,10.60
2022-10-18T20:34:02.040Z,7.53
2022-10-18T20:36:30.535Z,6.63
2022-10-18T20:38:57.828Z,6.87
2022-10-18T20:41:33.791Z,5.37
2022-10-18T20:44:03.142Z,3.73
2022-10-18T20:46:30.697Z,6.03
2022-10-18T20:48:57.561Z,6.33
2022-10-18T20:51:24.598Z,4.97
2022-10-18T20:53:51.673Z,5.10
2022-10-18T20:56:20.504Z,4.47
2022-10-18T20:58:48.705Z,5.83
2022-10-18T21:01:18.300Z,7.30
2022-10-18T21:03:46.249Z,9.10
2022-10-18T21:06:18.013Z,8.80
2022-10-18T21:08:45.109Z,6.80
2022-10-18T21:11:12.433Z,5.60
2022-10-18T21:13:40.871Z,8.07
2022-10-18T21:16:08.774Z,5.83
2022-10-18T21:18:36.824Z,3.70
2022-10-18T21:21:20.557Z,7.07
2022-10-18T21:23:53.619Z,5.63
2022-10-18T21:26:22.411Z,7.63
2022-10-18T21:28:53.489Z,4.87
2022-10-18T21:31:37.268Z,6.73
2022-10-18T21:34:12.694Z,5.10
2022-10-18T21:36:40.133Z,6.17
2022-10-18T21:39:09.049Z,7.67
2022-10-18T21:41:36.355Z,7.53
2022-10-18T21:44:08.254Z,6.83
2022-10-18T21:46:39.202Z,5.87
2022-10-18T21:49:06.809Z,8.70
2022-10-18T21:51:33.305Z,7.67
2022-10-18T21:53:59.870Z,7.70
2022-10-18T21:56:31.869Z,3.23
2022-10-18T21:58:58.845Z,5.63
2022-10-18T22:01:28.048Z,7.77
2022-10-18T22:03:55.952Z,4.97
2022-10-18T22:06:23.321Z,7.10
2022-10-18T22:08:58.417Z,5.73
2022-10-18T22:11:28.800Z,6.47
2022-10-18T22:13:55.620Z,6.77
2022-10-18T22:16:22.465Z,4.20
2022-10-18T22:18:49.777Z,6.50
2022-10-18T22:21:18.908Z,6.37
2022-10-18T22:23:51.393Z,8.27
2022-10-18T22:26:29.293Z,3.90
2022-10-18T22:29:01.155Z,6.83
2022-10-18T22:31:31.107Z,6.23
2022-10-18T22:34:10.730Z,4.57
2022-10-18T22:36:37.297Z,4.43
2022-10-18T22:39:05.510Z,6.93
2022-10-18T22:41:32.757Z,7.20
2022-10-18T22:44:01.181Z,4.40
2022-10-18T22:46:30.865Z,9.07
2022-10-18T22:48:57.365Z,9.57
2022-10-18T22:51:24.082Z,8.83
2022-10-18T22:53:50.686Z,4.70
2022-10-18T22:56:19.357Z,7.13
2022-10-18T22:58:46.038Z,7.47
2022-10-18T23:01:15.297Z,9.07
2022-10-18T23:03:42.022Z,5.70
2022-10-18T23:06:26.717Z,8.53
2022-10-18T23:08:54.944Z,5.77
2022-10-18T23:11:21.851Z,5.77
2022-10-18T23:13:48.365Z,8.17
2022-10-18T23:16:14.834Z,7.53
2022-10-18T23:18:41.388Z,12.10
2022-10-18T23:21:11.102Z,7.13
2022-10-18T23:23:38.927Z,6.30
2022-10-18T23:26:08.055Z,6.80
2022-10-18T23:28:40.082Z,5.20
2022-10-18T23:31:11.549Z,5.77
2022-10-18T23:33:38.777Z,9.63
2022-10-18T23:36:06.278Z,6.60
2022-10-18T23:38:33.268Z,5.03
2022-10-18T23:40:59.727Z,8.63
2022-10-18T23:43:26.345Z,10.47
2022-10-18T23:45:52.841Z,9.53
2022-10-18T23:48:19.294Z,5.90
2022-10-18T23:50:45.817Z,7.93
2022-10-18T23:53:12.305Z,5.57
2022-10-18T23:55:38.783Z,8.90
2022-10-18T23:58:05.282Z,8.27
